createdAt,value
2023-05-14T00:02:49.572Z,2.42
2023-05-14T00:05:42.162Z,2.45
2023-05-14T00:08:35.702Z,2.83
2023-05-14T00:11:28.749Z,2.45
2023-05-14T00:14:23.808Z,2.10
2023-05-14T00:17:17.365Z,2.60
2023-05-14T00:20:12.337Z,2.55
2023-05-14T00:23:05.356Z,2.40
2023-05-14T00:25:58.540Z,2.30
2023-05-14T00:28:51.573Z,2.22
2023-05-14T00:31:46.092Z,2.35
2023-05-14T00:34:39.157Z,2.38
2023-05-14T00:37:32.584Z,2.35
2023-05-14T00:40:27.804Z,2.25
2023-05-14T00:43:22.609Z,2.50
2023-05-14T00:46:16.401Z,2.50
2023-05-14T00:49:10.982Z,2.58
2023-05-14T00:52:04.923Z,2.30
2023-05-14T00:54:59.702Z,2.35
2023-05-14T00:57:54.645Z,2.47
2023-05-14T01:00:48.031Z,2.70
2023-05-14T01:03:41.863Z,2.30
2023-05-14T01:06:45.222Z,2.60
2023-05-14T01:09:43.832Z,2.30
2023-05-14T01:12:43.737Z,2.47
2023-05-14T01:15:38.717Z,2.60
2023-05-14T01:18:33.717Z,2.60
2023-05-14T01:21:35.718Z,2.42
2023-05-14T01:24:28.434Z,2.00
2023-05-14T01:27:27.131Z,2.10
2023-05-14T01:30:25.932Z,2.60
2023-05-14T01:33:20.920Z,2.20
2023-05-14T01:36:14.748Z,2.03
2023-05-14T01:39:09.819Z,2.00
2023-05-14T01:42:05.217Z,2.40
2023-05-14T01:44:59.030Z,2.10
2023-05-14T01:47:52.922Z,2.20
2023-05-14T01:50:46.499Z,2.60
2023-05-14T01:53:39.428Z,2.20
2023-05-14T01:56:33.861Z,2.38
2023-05-14T01:59:29.747Z,2.25
2023-05-14T02:02:22.560Z,2.47
2023-05-14T02:05:15.694Z,2.42
2023-05-14T02:08:08.316Z,2.03
2023-05-14T02:11:01.527Z,1.88
2023-05-14T02:13:55.836Z,2.33
2023-05-14T02:16:48.802Z,1.75
2023-05-14T02:19:41.487Z,2.40
2023-05-14T02:22:34.878Z,2.13
2023-05-14T02:25:28.785Z,1.80
2023-05-14T02:28:21.637Z,1.90
2023-05-14T02:31:17.602Z,2.25
2023-05-14T02:34:11.779Z,2.35
2023-05-14T02:37:04.261Z,2.05
2023-05-14T02:39:57.532Z,2.50
2023-05-14T02:42:50.691Z,2.10
2023-05-14T02:45:43.961Z,2.10
2023-05-14T02:48:38.883Z,2.50
2023-05-14T02:51:32.603Z,2.30
2023-05-14T02:54:25.630Z,2.20
2023-05-14T02:57:18.775Z,1.98
2023-05-14T03:00:12.792Z,2.30
2023-05-14T03:03:06.710Z,2.20
2023-05-14T03:06:01.807Z,2.15
2023-05-14T03:08:54.159Z,2.30
2023-05-14T03:11:47.614Z,2.10
2023-05-14T03:14:40.963Z,2.30
2023-05-14T03:17:34.722Z,2.22
2023-05-14T03:20:27.848Z,2.10
2023-05-14T03:23:21.743Z,2.20
2023-05-14T03:26:14.864Z,1.85
2023-05-14T03:29:07.608Z,2.53
2023-05-14T03:32:00.518Z,2.30
2023-05-14T03:34:53.594Z,1.85
2023-05-14T03:37:46.487Z,2.30
2023-05-14T03:40:41.074Z,2.20
2023-05-14T03:43:35.077Z,2.40
2023-05-14T03:46:28.693Z,2.05
2023-05-14T03:49:21.722Z,2.00
2023-05-14T03:52:14.671Z,2.13
2023-05-14T03:55:08.364Z,2.38
2023-05-14T03:58:02.780Z,2.28
2023-05-14T04:00:55.818Z,2.38
2023-05-14T04:03:48.683Z,2.15
2023-05-14T04:06:41.517Z,2.67
2023-05-14T04:09:34.632Z,2.10
2023-05-14T04:12:27.769Z,2.50
2023-05-14T04:15:22.197Z,2.20
2023-05-14T04:18:15.559Z,2.17
2023-05-14T04:21:08.732Z,2.17
2023-05-14T04:24:01.560Z,2.25
2023-05-14T04:26:54.856Z,2.33
2023-05-14T04:29:47.693Z,1.90
2023-05-14T04:32:42.033Z,2.30
2023-05-14T04:35:37.148Z,1.92
2023-05-14T04:38:31.711Z,2.10
2023-05-14T04:41:24.731Z,2.00
2023-05-14T04:44:17.873Z,2.17
2023-05-14T04:47:11.246Z,2.15
2023-05-14T04:50:06.844Z,2.42
2023-05-14T04:52:59.590Z,2.33
2023-05-14T04:55:53.936Z,2.33
2023-05-14T04:58:46.458Z,2.22
2023-05-14T05:01:39.720Z,2.35
2023-05-14T05:04:32.579Z,2.30
2023-05-14T05:07:27.017Z,2.17
2023-05-14T05:10:20.993Z,2.35
2023-05-14T05:13:16.880Z,2.10
2023-05-14T05:16:09.855Z,2.00
2023-05-14T05:19:03.081Z,1.92
2023-05-14T05:21:56.738Z,2.00
2023-05-14T05:24:50.981Z,2.40
2023-05-14T05:27:44.783Z,2.60
2023-05-14T05:30:37.928Z,2.47
2023-05-14T05:33:30.572Z,2.67
2023-05-14T05:36:23.731Z,2.15
2023-05-14T05:39:16.631Z,2.47
2023-05-14T05:42:11.269Z,1.90
2023-05-14T05:45:05.129Z,2.20
2023-05-14T05:47:58.681Z,2.53
2023-05-14T05:50:51.847Z,2.17
2023-05-14T05:53:44.759Z,1.90
2023-05-14T05:56:37.647Z,2.30
2023-05-14T05:59:32.161Z,2.40
2023-05-14T06:02:26.112Z,1.80
2023-05-14T06:05:20.075Z,2.50
2023-05-14T06:08:13.630Z,2.25
2023-05-14T06:11:06.564Z,2.38
2023-05-14T06:13:59.994Z,1.90
2023-05-14T06:16:54.012Z,1.95
2023-05-14T06:19:47.836Z,2.25
2023-05-14T06:22:40.813Z,2.17
2023-05-14T06:25:33.636Z,2.20
2023-05-14T06:28:26.735Z,2.05
2023-05-14T06:31:19.770Z,2.15
2023-05-14T06:34:14.094Z,2.30
2023-05-14T06:37:07.693Z,2.13
2023-05-14T06:40:01.478Z,2.22
2023-05-14T06:42:54.563Z,2.10
2023-05-14T06:45:49.989Z,2.03
2023-05-14T06:48:42.732Z,2.05
2023-05-14T06:51:38.907Z,1.83
2023-05-14T06:54:32.088Z,2.33
2023-05-14T06:57:25.846Z,2.53
2023-05-14T07:00:19.663Z,2.40
2023-05-14T07:03:12.795Z,2.20
2023-05-14T07:06:06.913Z,2.05
2023-05-14T07:09:03.066Z,2.42
2023-05-14T07:11:55.820Z,2.22
2023-05-14T07:14:48.805Z,2.30
2023-05-14T07:17:42.058Z,2.03
2023-05-14T07:20:35.517Z,2.47
2023-05-14T07:23:28.828Z,2.13
2023-05-14T07:26:24.397Z,2.50
2023-05-14T07:29:17.500Z,2.67
2023-05-14T07:32:11.425Z,2.55
2023-05-14T07:35:07.176Z,2.58
2023-05-14T07:38:01.136Z,2.95
2023-05-14T07:40:55.152Z,2.80
2023-05-14T07:43:50.175Z,2.28
2023-05-14T07:46:44.299Z,2.55
2023-05-14T07:49:37.629Z,2.70
2023-05-14T07:52:30.971Z,2.65
2023-05-14T07:55:23.934Z,2.95
2023-05-14T07:58:16.743Z,2.55
2023-05-14T08:01:12.640Z,2.60
2023-05-14T08:04:06.011Z,2.40
2023-05-14T08:06:59.096Z,2.70
2023-05-14T08:09:51.917Z,2.28
2023-05-14T08:12:44.785Z,2.30
2023-05-14T08:15:38.100Z,2.55
2023-05-14T08:18:32.141Z,2.38
2023-05-14T08:21:25.942Z,2.50
2023-05-14T08:24:19.900Z,2.70
2023-05-14T08:27:13.219Z,2.40
2023-05-14T08:30:08.011Z,2.45
2023-05-14T08:33:01.076Z,2.20
2023-05-14T08:35:56.156Z,2.92
2023-05-14T08:38:50.404Z,2.70
2023-05-14T08:41:44.265Z,2.42
2023-05-14T08:44:45.811Z,2.35
2023-05-14T08:47:39.033Z,2.30
2023-05-14T08:50:32.624Z,2.33
2023-05-14T08:53:27.288Z,2.47
2023-05-14T08:56:21.876Z,2.38
2023-05-14T08:59:15.004Z,2.83
2023-05-14T09:02:11.194Z,2.60
2023-05-14T09:05:05.219Z,2.50
2023-05-14T09:07:58.912Z,2.40
2023-05-14T09:10:53.231Z,2.38
2023-05-14T09:13:47.027Z,2.25
2023-05-14T09:16:42.598Z,2.53
2023-05-14T09:19:38.089Z,2.38
2023-05-14T09:22:32.788Z,2.35
2023-05-14T09:25:28.435Z,2.45
2023-05-14T09:28:27.343Z,2.97
2023-05-14T09:31:20.973Z,2.55
2023-05-14T09:34:25.199Z,2.22
2023-05-14T09:37:19.145Z,2.13
2023-05-14T09:40:12.419Z,2.40
2023-05-14T09:43:06.406Z,2.50
2023-05-14T09:46:01.156Z,2.53
2023-05-14T09:48:57.076Z,2.53
2023-05-14T09:51:50.657Z,2.28
2023-05-14T09:54:44.337Z,2.30
2023-05-14T09:57:38.083Z,2.25
2023-05-14T10:00:32.623Z,2.38
2023-05-14T10:03:29.350Z,1.85
2023-05-14T10:06:24.965Z,2.15
2023-05-14T10:09:23.190Z,2.72
2023-05-14T10:12:20.602Z,2.13
2023-05-14T10:15:20.709Z,2.53
2023-05-14T10:18:18.839Z,2.13
2023-05-14T10:21:16.301Z,2.40
2023-05-14T10:24:11.381Z,2.10
2023-05-14T10:27:04.909Z,2.00
2023-05-14T10:29:58.470Z,2.03
2023-05-14T10:33:07.135Z,2.35
2023-05-14T10:36:02.456Z,2.13
2023-05-14T10:38:58.466Z,1.90
2023-05-14T10:41:52.150Z,2.13
2023-05-14T10:44:51.256Z,1.80
2023-05-14T10:47:47.371Z,2.00
2023-05-14T10:50:40.970Z,2.05
2023-05-14T10:53:35.624Z,2.25
2023-05-14T10:56:30.058Z,2.10
2023-05-14T10:59:28.098Z,2.20
2023-05-14T11:02:23.331Z,2.10
2023-05-14T11:05:18.142Z,2.13
2023-05-14T11:08:12.970Z,2.50
2023-05-14T11:11:07.169Z,2.08
2023-05-14T11:14:01.385Z,2.22
2023-05-14T11:16:55.763Z,2.30
2023-05-14T11:19:51.082Z,2.05
2023-05-14T11:22:44.627Z,1.88
2023-05-14T11:25:38.146Z,2.45
2023-05-14T11:28:31.053Z,2.25
2023-05-14T11:31:26.234Z,2.00
2023-05-14T11:34:19.115Z,2.17
2023-05-14T11:37:13.654Z,1.90
2023-05-14T11:40:10.862Z,2.00
2023-05-14T11:43:05.040Z,2.30
2023-05-14T11:45:58.424Z,2.00
2023-05-14T11:48:53.326Z,2.20
2023-05-14T11:51:47.299Z,2.10
2023-05-14T11:54:40.270Z,1.95
2023-05-14T11:57:33.182Z,2.08
2023-05-14T12:00:27.812Z,2.05
2023-05-14T12:03:25.435Z,2.30
2023-05-14T12:06:20.354Z,1.98
2023-05-14T12:09:16.354Z,2.10
2023-05-14T12:12:11.863Z,1.85
2023-05-14T12:15:12.351Z,2.78
2023-05-14T12:18:22.914Z,2.17
2023-05-14T12:21:20.948Z,2.30
2023-05-14T12:24:15.134Z,2.20
2023-05-14T12:27:10.461Z,1.73
2023-05-14T12:33:01.898Z,2.50
2023-05-14T12:35:58.896Z,1.90
2023-05-14T12:39:01.835Z,2.00
2023-05-14T12:41:56.433Z,2.20
2023-05-14T12:44:53.870Z,1.90
2023-05-14T12:47:47.482Z,2.17
2023-05-14T12:50:41.487Z,2.33
2023-05-14T12:53:36.109Z,1.73
2023-05-14T12:56:31.626Z,2.03
2023-05-14T12:59:24.997Z,1.73
2023-05-14T13:02:18.845Z,1.90
2023-05-14T13:05:12.052Z,1.90
2023-05-14T13:08:04.910Z,2.10
2023-05-14T13:10:57.917Z,1.90
2023-05-14T13:13:52.665Z,2.15
2023-05-14T13:16:46.299Z,1.90
2023-05-14T13:19:39.023Z,1.77
2023-05-14T13:22:31.841Z,1.98
2023-05-14T13:25:25.590Z,1.95
2023-05-14T13:28:18.951Z,2.00
2023-05-14T13:31:14.723Z,1.88
2023-05-14T13:34:08.023Z,1.95
2023-05-14T13:37:01.979Z,1.85
2023-05-14T13:39:55.133Z,1.77
2023-05-14T13:42:48.288Z,1.90
2023-05-14T13:45:41.309Z,1.73
2023-05-14T13:48:37.276Z,1.80
2023-05-14T13:51:29.861Z,1.75
2023-05-14T13:54:23.550Z,1.50
2023-05-14T13:57:16.795Z,1.98
2023-05-14T14:00:11.121Z,1.80
2023-05-14T14:03:04.025Z,1.80
2023-05-14T14:05:58.386Z,1.50
2023-05-14T14:08:51.269Z,2.03
2023-05-14T14:11:44.427Z,1.58
2023-05-14T14:14:38.040Z,1.50
2023-05-14T14:17:31.588Z,2.00
2023-05-14T14:20:25.134Z,1.55
2023-05-14T14:23:20.138Z,1.40
2023-05-14T14:26:13.053Z,1.52
2023-05-14T14:29:06.119Z,1.65
2023-05-14T14:31:59.612Z,1.80
2023-05-14T14:34:52.951Z,2.08
2023-05-14T14:37:53.721Z,1.85
2023-05-14T14:40:48.579Z,1.60
2023-05-14T14:43:43.416Z,1.83
2023-05-14T14:46:36.577Z,1.83
2023-05-14T14:49:31.311Z,2.03
2023-05-14T14:52:25.001Z,1.95
2023-05-14T14:55:18.171Z,1.65
2023-05-14T14:58:12.675Z,1.60
2023-05-14T15:01:06.246Z,1.80
2023-05-14T15:03:59.461Z,1.80
2023-05-14T15:06:52.348Z,1.70
2023-05-14T15:09:45.461Z,1.70
2023-05-14T15:12:38.070Z,1.80
2023-05-14T15:15:34.092Z,1.70
2023-05-14T15:18:27.242Z,1.60
2023-05-14T15:21:20.249Z,1.60
2023-05-14T15:24:13.727Z,1.52
2023-05-14T15:27:07.584Z,1.60
2023-05-14T15:30:01.001Z,1.60
2023-05-14T15:32:56.365Z,1.30
2023-05-14T15:35:52.405Z,1.80
2023-05-14T15:38:45.081Z,1.80
2023-05-14T15:41:38.404Z,1.80
2023-05-14T15:44:31.256Z,1.70
2023-05-14T15:47:24.242Z,2.13
2023-05-14T15:50:18.781Z,1.50
2023-05-14T15:53:11.989Z,1.85
2023-05-14T15:56:05.918Z,1.90
2023-05-14T15:58:59.380Z,1.50
2023-05-14T16:01:52.472Z,1.70
2023-05-14T16:04:46.044Z,1.65
2023-05-14T16:07:41.122Z,1.73
2023-05-14T16:10:33.977Z,1.52
2023-05-14T16:13:27.099Z,2.00
2023-05-14T16:16:22.758Z,1.70
2023-05-14T16:19:16.561Z,1.55
2023-05-14T16:22:10.281Z,1.70
2023-05-14T16:25:05.868Z,1.75
2023-05-14T16:27:59.568Z,1.75
2023-05-14T16:30:53.348Z,1.80
2023-05-14T16:33:46.115Z,1.50
2023-05-14T16:36:39.522Z,1.83
2023-05-14T16:39:32.250Z,1.55
2023-05-14T16:42:26.674Z,1.40
2023-05-14T16:45:20.128Z,1.70
2023-05-14T16:48:13.685Z,1.58
2023-05-14T16:51:07.570Z,1.70
2023-05-14T16:54:01.443Z,1.88
2023-05-14T16:56:54.327Z,1.92
2023-05-14T16:59:48.454Z,1.75
2023-05-14T17:02:41.552Z,1.67
2023-05-14T17:05:36.106Z,1.90
2023-05-14T17:08:32.221Z,1.70
2023-05-14T17:11:25.512Z,1.88
2023-05-14T17:14:18.434Z,1.80
2023-05-14T17:17:12.975Z,1.80
2023-05-14T17:20:07.252Z,1.88
2023-05-14T17:23:00.184Z,1.70
2023-05-14T17:25:53.315Z,1.70
2023-05-14T17:28:46.617Z,1.60
2023-05-14T17:31:40.501Z,1.58
2023-05-14T17:34:34.557Z,1.45
2023-05-14T17:37:27.774Z,1.60
2023-05-14T17:40:21.566Z,1.55
2023-05-14T17:43:15.272Z,1.65
2023-05-14T17:46:08.477Z,1.50
2023-05-14T17:49:01.169Z,1.20
2023-05-14T17:51:55.510Z,1.60
2023-05-14T17:54:48.272Z,1.58
2023-05-14T17:57:42.459Z,1.27
2023-05-14T18:00:35.905Z,1.40
2023-05-14T18:03:30.387Z,1.30
2023-05-14T18:06:23.242Z,1.63
2023-05-14T18:09:17.449Z,1.60
2023-05-14T18:12:10.799Z,1.42
2023-05-14T18:15:04.406Z,1.20
2023-05-14T18:17:57.164Z,1.30
2023-05-14T18:20:50.476Z,1.40
2023-05-14T18:23:43.291Z,1.23
2023-05-14T18:26:37.965Z,1.05
2023-05-14T18:29:31.157Z,0.88
2023-05-14T18:32:24.256Z,1.30
2023-05-14T18:35:17.467Z,1.38
2023-05-14T18:38:11.897Z,1.65
2023-05-14T18:41:05.404Z,1.40
2023-05-14T18:43:59.916Z,1.55
2023-05-14T18:46:53.886Z,1.10
2023-05-14T18:49:47.337Z,1.50
2023-05-14T18:52:40.256Z,1.30
2023-05-14T18:55:33.697Z,1.20
2023-05-14T18:58:27.127Z,1.35
2023-05-14T19:01:25.084Z,1.65
2023-05-14T19:04:18.422Z,1.60
2023-05-14T19:07:11.087Z,1.25
2023-05-14T19:10:04.773Z,1.40
2023-05-14T19:12:58.543Z,1.30
2023-05-14T19:15:51.548Z,1.27
2023-05-14T19:18:45.854Z,1.35
2023-05-14T19:21:39.397Z,1.52
2023-05-14T19:24:32.525Z,1.60
2023-05-14T19:27:26.607Z,1.60
2023-05-14T19:30:20.972Z,1.20
2023-05-14T19:33:14.335Z,1.50
2023-05-14T19:36:09.010Z,1.50
2023-05-14T19:39:03.003Z,1.33
2023-05-14T19:41:56.328Z,1.30
2023-05-14T19:44:49.511Z,1.60
2023-05-14T19:47:42.795Z,1.65
2023-05-14T19:50:37.070Z,1.60
2023-05-14T19:53:31.646Z,1.60
2023-05-14T19:56:25.781Z,1.38
2023-05-14T19:59:20.322Z,1.25
2023-05-14T20:02:18.372Z,1.35
2023-05-14T20:05:11.573Z,1.50
2023-05-14T20:08:06.513Z,1.25
2023-05-14T20:11:00.826Z,1.80
2023-05-14T20:13:54.504Z,1.40
2023-05-14T20:16:48.968Z,1.48
2023-05-14T20:19:43.739Z,1.70
2023-05-14T20:22:38.286Z,2.00
2023-05-14T20:25:32.653Z,1.90
2023-05-14T20:28:27.666Z,1.40
2023-05-14T20:31:21.335Z,1.50
2023-05-14T20:34:14.508Z,1.50
2023-05-14T20:37:07.979Z,1.42
2023-05-14T20:40:03.309Z,1.40
2023-05-14T20:42:56.281Z,1.33
2023-05-14T20:45:50.957Z,1.50
2023-05-14T20:48:44.476Z,1.42
2023-05-14T20:51:37.643Z,1.55
2023-05-14T20:54:30.489Z,1.50
2023-05-14T20:57:23.548Z,1.60
2023-05-14T21:00:17.036Z,1.50
2023-05-14T21:03:11.906Z,1.33
2023-05-14T21:06:05.480Z,1.33
2023-05-14T21:08:58.242Z,1.40
2023-05-14T21:11:51.452Z,1.40
2023-05-14T21:14:44.449Z,1.60
2023-05-14T21:17:37.583Z,2.05
2023-05-14T21:20:32.460Z,1.50
2023-05-14T21:23:25.333Z,1.55
2023-05-14T21:26:18.540Z,1.40
2023-05-14T21:29:12.003Z,1.52
2023-05-14T21:32:06.414Z,1.40
2023-05-14T21:34:59.637Z,1.58
2023-05-14T21:37:54.178Z,1.40
2023-05-14T21:40:47.213Z,1.30
2023-05-14T21:43:40.867Z,1.70
2023-05-14T21:46:34.492Z,1.63
2023-05-14T21:49:27.632Z,1.50
2023-05-14T21:52:20.544Z,1.23
2023-05-14T21:55:15.314Z,1.20
2023-05-14T21:58:08.661Z,1.60
2023-05-14T22:01:01.760Z,1.60
2023-05-14T22:03:55.773Z,1.45
2023-05-14T22:06:50.490Z,1.55
2023-05-14T22:09:43.701Z,1.60
2023-05-14T22:12:37.906Z,1.33
2023-05-14T22:15:31.729Z,1.55
2023-05-14T22:18:24.816Z,1.67
2023-05-14T22:21:17.620Z,1.40
2023-05-14T22:24:10.772Z,1.58
2023-05-14T22:27:03.973Z,1.60
2023-05-14T22:29:59.242Z,1.42
2023-05-14T22:32:52.521Z,1.25
2023-05-14T22:35:45.971Z,1.23
2023-05-14T22:38:41.111Z,1.73
2023-05-14T22:41:34.807Z,1.80
2023-05-14T22:44:29.734Z,1.40
2023-05-14T22:47:25.251Z,1.70
2023-05-14T22:50:18.660Z,2.20
2023-05-14T22:53:11.878Z,1.52
2023-05-14T22:56:06.264Z,1.63
2023-05-14T22:59:01.030Z,1.77
2023-05-14T23:01:54.744Z,1.60
2023-05-14T23:04:49.234Z,1.50
2023-05-14T23:07:42.473Z,1.90
2023-05-14T23:10:36.462Z,1.38
2023-05-14T23:13:29.330Z,1.90
2023-05-14T23:16:22.837Z,1.83
2023-05-14T23:19:15.751Z,1.90
2023-05-14T23:22:11.330Z,1.70
2023-05-14T23:25:05.189Z,1.90
2023-05-14T23:27:58.806Z,1.50
2023-05-14T23:30:51.673Z,1.88
2023-05-14T23:33:46.384Z,1.60
2023-05-14T23:36:40.436Z,1.60
2023-05-14T23:39:35.072Z,1.80
2023-05-14T23:42:28.835Z,1.60
2023-05-14T23:45:21.854Z,1.55
2023-05-14T23:48:14.748Z,1.77
2023-05-14T23:51:07.900Z,1.70
2023-05-14T23:54:01.784Z,1.58
2023-05-14T23:56:56.192Z,1.80
2023-05-14T23:59:49.410Z,1.80
